Time;durP1;ratioP1;P1;durP2;ratioP2;P2;SDS_P1;SDS_P2;PMS_P1;PMS_P2;Temp;Humidity;BMP_temperature;BMP_pressure;BME280_temperature;BME280_humidity;BME280_pressure;Samples;Min_cycle;Max_cycle;Signal;HPM_P1;HPM_P2
2022/08/13 00:00:14;;;;;;;;;;;16.80;99.90;;;;;;5154695;27;19907;-75
2022/08/13 00:02:42;;;;;;;;;;;16.80;99.90;;;;;;5154441;27;19903;-75
2022/08/13 00:05:09;;;;;;;;;;;16.80;99.90;;;;;;5155611;27;19922;-75
2022/08/13 00:07:35;;;;;;;;;;;16.80;99.90;;;;;;5153953;27;19903;-75
2022/08/13 00:10:02;;;;;;;;;;;16.80;99.90;;;;;;5136324;27;19962;-75
2022/08/13 00:15:28;;;;;;;;;;;16.70;99.90;;;;;;5154575;27;19914;-74
2022/08/13 00:17:59;;;;;;;;;;;16.70;99.90;;;;;;5154281;27;19907;-74
2022/08/13 00:20:28;;;;;;;;;;;16.70;99.90;;;;;;5154852;27;19903;-74
2022/08/13 00:22:55;;;;;;;;;;;16.70;99.90;;;;;;5154206;27;19911;-74
2022/08/13 00:25:20;;;;;;;;;;;16.60;99.90;;;;;;5154766;27;19910;-74
2022/08/13 00:27:56;;;;;;;;;;;16.60;99.90;;;;;;5135479;27;19903;-74
2022/08/13 00:30:23;;;;;;;;;;;16.60;99.90;;;;;;5154656;27;19903;-74
2022/08/13 00:32:49;;;;;;;;;;;16.60;99.90;;;;;;5135573;27;19903;-74
2022/08/13 00:35:14;;;;;;;;;;;16.50;99.90;;;;;;5154156;27;20355;-74
2022/08/13 00:37:41;;;;;;;;;;;16.50;99.90;;;;;;5153837;27;19907;-74
2022/08/13 00:40:10;;;;;;;;;;;16.50;99.90;;;;;;5157171;27;20523;-75
2022/08/13 00:42:40;;;;;;;;;;;16.40;99.90;;;;;;5158364;27;19915;-75
2022/08/13 00:45:06;;;;;;;;;;;16.40;99.90;;;;;;5158779;27;19903;-74
2022/08/13 00:50:30;;;;;;;;;;;16.40;99.90;;;;;;5112404;27;19910;-75
2022/08/13 00:52:55;;;;;;;;;;;16.40;99.90;;;;;;5157874;27;19903;-75
2022/08/13 00:55:24;;;;;;;;;;;16.40;99.90;;;;;;5158715;27;19911;-75
2022/08/13 00:57:50;;;;;;;;;;;16.30;99.90;;;;;;5157966;27;19907;-75
2022/08/13 01:00:17;;;;;;;;;;;16.30;99.90;;;;;;5158742;27;19925;-75
2022/08/13 01:02:44;;;;;;;;;;;16.30;99.90;;;;;;5157777;27;19903;-75
2022/08/13 01:05:10;;;;;;;;;;;16.20;99.90;;;;;;5158545;27;20248;-75
2022/08/13 01:07:40;;;;;;;;;;;16.30;99.90;;;;;;5157926;27;20009;-75
2022/08/13 01:10:06;;;;;;;;;;;16.30;99.90;;;;;;5158372;27;19956;-75
2022/08/13 01:12:32;;;;;;;;;;;16.20;99.90;;;;;;5139397;27;19907;-75
2022/08/13 01:15:02;;;;;;;;;;;16.20;99.90;;;;;;5157808;27;19958;-75
2022/08/13 01:17:28;;;;;;;;;;;16.20;99.90;;;;;;5159053;27;19915;-75
2022/08/13 01:19:54;;;;;;;;;;;16.10;99.90;;;;;;5157965;27;19913;-75
2022/08/13 01:22:24;;;;;;;;;;;16.10;99.90;;;;;;5158237;27;19986;-75
2022/08/13 01:24:50;;;;;;;;;;;16.10;99.90;;;;;;5138657;27;19903;-75
2022/08/13 01:27:21;;;;;;;;;;;16.00;99.90;;;;;;5157990;27;19904;-75
2022/08/13 01:29:47;;;;;;;;;;;16.10;99.90;;;;;;5157474;27;20043;-74
2022/08/13 01:32:15;;;;;;;;;;;16.10;99.90;;;;;;5157929;27;19968;-74
2022/08/13 01:34:42;;;;;;;;;;;16.10;99.90;;;;;;5157135;27;19907;-75
2022/08/13 01:37:08;;;;;;;;;;;16.10;99.90;;;;;;5157845;27;19913;-75
2022/08/13 01:39:33;;;;;;;;;;;16.10;99.90;;;;;;5157809;27;19997;-74
2022/08/13 01:41:59;;;;;;;;;;;16.10;99.90;;;;;;5157394;27;19918;-74
2022/08/13 01:44:25;;;;;;;;;;;16.20;99.90;;;;;;5157604;27;19907;-75
2022/08/13 01:52:30;;;;;;;;;;;16.00;99.90;;;;;;5156926;27;19910;-76
2022/08/13 01:54:56;;;;;;;;;;;16.00;99.90;;;;;;5156749;27;20255;-75
2022/08/13 01:57:22;;;;;;;;;;;16.00;99.90;;;;;;5157410;27;19960;-75
2022/08/13 01:59:47;;;;;;;;;;;15.90;99.90;;;;;;5156667;27;19911;-75
2022/08/13 02:02:14;;;;;;;;;;;16.00;99.90;;;;;;5157187;27;19903;-75
2022/08/13 02:04:41;;;;;;;;;;;15.90;99.90;;;;;;5156517;27;19903;-75
2022/08/13 02:07:09;;;;;;;;;;;15.90;99.90;;;;;;5156934;27;20347;-75
2022/08/13 02:09:34;;;;;;;;;;;15.90;99.90;;;;;;5157223;27;19903;-74
2022/08/13 02:12:01;;;;;;;;;;;15.80;99.90;;;;;;5156321;27;19993;-75
2022/08/13 02:14:27;;;;;;;;;;;15.80;99.90;;;;;;5156855;27;19914;-75
2022/08/13 02:16:53;;;;;;;;;;;15.80;99.90;;;;;;5156589;27;19914;-75
2022/08/13 02:19:18;;;;;;;;;;;15.80;99.90;;;;;;5157114;27;19903;-75
2022/08/13 02:21:44;;;;;;;;;;;15.80;99.90;;;;;;5156492;27;19907;-75
2022/08/13 02:24:14;;;;;;;;;;;15.80;99.90;;;;;;5156945;27;19910;-75
2022/08/13 02:26:43;;;;;;;;;;;15.80;99.90;;;;;;5156791;27;19910;-74
2022/08/13 02:29:09;;;;;;;;;;;15.70;99.90;;;;;;5156949;27;19907;-74
2022/08/13 02:31:35;;;;;;;;;;;15.70;99.90;;;;;;5157055;27;19909;-74
2022/08/13 02:34:01;;;;;;;;;;;15.70;99.90;;;;;;5156197;27;20002;-74
2022/08/13 02:36:27;;;;;;;;;;;15.70;99.90;;;;;;5156540;27;19995;-75
2022/08/13 02:38:57;;;;;;;;;;;15.70;99.90;;;;;;5156118;27;19903;-75
2022/08/13 02:44:08;;;;;;;;;;;15.70;99.90;;;;;;5156441;27;20243;-75
2022/08/13 02:46:34;;;;;;;;;;;15.70;99.90;;;;;;5156524;27;19903;-75
2022/08/13 02:49:02;;;;;;;;;;;15.60;99.90;;;;;;5155870;27;19907;-75
2022/08/13 02:51:29;;;;;;;;;;;15.70;99.90;;;;;;5156537;27;19914;-75
2022/08/13 02:53:54;;;;;;;;;;;15.70;99.90;;;;;;5155813;27;19903;-75
2022/08/13 02:56:20;;;;;;;;;;;15.70;99.90;;;;;;5156370;27;20260;-75
2022/08/13 02:58:46;;;;;;;;;;;15.70;99.90;;;;;;5155871;27;19904;-75
2022/08/13 03:01:13;;;;;;;;;;;15.70;99.90;;;;;;5156257;27;19951;-75
2022/08/13 03:03:40;;;;;;;;;;;15.60;99.90;;;;;;5155279;27;19989;-76
2022/08/13 03:06:08;;;;;;;;;;;15.60;99.90;;;;;;5155551;27;19903;-76
2022/08/13 03:08:34;;;;;;;;;;;15.50;99.90;;;;;;5154328;27;19903;-76
2022/08/13 03:11:00;;;;;;;;;;;15.50;99.90;;;;;;5155466;27;20255;-75
2022/08/13 03:13:28;;;;;;;;;;;15.40;99.90;;;;;;5155676;27;19903;-75
2022/08/13 03:15:54;;;;;;;;;;;15.40;99.90;;;;;;5155249;27;20006;-74
2022/08/13 03:18:20;;;;;;;;;;;15.40;99.90;;;;;;5155689;27;20047;-75
2022/08/13 03:20:46;;;;;;;;;;;15.40;99.90;;;;;;5155232;27;19964;-75
2022/08/13 03:23:12;;;;;;;;;;;15.30;99.90;;;;;;5155820;27;19903;-75
2022/08/13 03:25:37;;;;;;;;;;;15.30;99.90;;;;;;5137187;27;19917;-75
2022/08/13 03:28:04;;;;;;;;;;;15.40;99.90;;;;;;5136614;27;19911;-75
2022/08/13 03:30:34;;;;;;;;;;;15.40;99.90;;;;;;5155667;27;19907;-75
2022/08/13 03:33:07;;;;;;;;;;;15.40;99.90;;;;;;5154853;27;19911;-75
2022/08/13 03:35:32;;;;;;;;;;;15.40;99.90;;;;;;5155272;27;20450;-75
2022/08/13 03:37:58;;;;;;;;;;;15.40;99.90;;;;;;5155010;27;19958;-75
2022/08/13 03:40:25;;;;;;;;;;;15.30;99.90;;;;;;5155195;27;20355;-74
2022/08/13 03:42:52;;;;;;;;;;;15.30;99.90;;;;;;5154478;27;20327;-75
2022/08/13 03:45:18;;;;;;;;;;;15.20;99.90;;;;;;5155071;27;20229;-75
2022/08/13 03:47:44;;;;;;;;;;;15.20;99.90;;;;;;5154891;27;19903;-75
2022/08/13 03:50:12;;;;;;;;;;;15.20;99.90;;;;;;5154780;27;19903;-75
2022/08/13 03:52:37;;;;;;;;;;;15.20;99.90;;;;;;5155217;27;19910;-75
2022/08/13 03:55:04;;;;;;;;;;;15.10;99.90;;;;;;5154425;27;19911;-75
2022/08/13 03:57:30;;;;;;;;;;;15.10;99.90;;;;;;5155488;27;19949;-75
2022/08/13 03:59:57;;;;;;;;;;;15.10;99.90;;;;;;5154418;27;19934;-75
2022/08/13 04:02:23;;;;;;;;;;;15.10;99.90;;;;;;5154942;27;19903;-75
2022/08/13 04:04:50;;;;;;;;;;;15.10;99.90;;;;;;5154361;27;19950;-75
2022/08/13 04:07:16;;;;;;;;;;;15.20;99.90;;;;;;5136787;27;19995;-75
2022/08/13 04:09:43;;;;;;;;;;;15.20;99.90;;;;;;5155002;27;19944;-75
2022/08/13 04:12:11;;;;;;;;;;;15.20;99.90;;;;;;5154438;27;20055;-75
2022/08/13 04:14:41;;;;;;;;;;;15.20;99.90;;;;;;5154447;27;20003;-75
2022/08/13 04:17:10;;;;;;;;;;;15.30;99.90;;;;;;5135708;27;19933;-75
2022/08/13 04:19:37;;;;;;;;;;;15.20;99.90;;;;;;5136484;27;19910;-75
2022/08/13 04:22:03;;;;;;;;;;;15.20;99.90;;;;;;5154323;27;19956;-75
2022/08/13 04:24:28;;;;;;;;;;;15.30;99.90;;;;;;5154816;27;19907;-75
2022/08/13 04:26:54;;;;;;;;;;;15.20;99.90;;;;;;5154248;27;19911;-75
2022/08/13 04:29:20;;;;;;;;;;;15.20;99.90;;;;;;5136231;27;19903;-75
2022/08/13 04:31:46;;;;;;;;;;;15.10;99.90;;;;;;5154692;27;19903;-75
2022/08/13 04:34:11;;;;;;;;;;;15.20;99.90;;;;;;5154204;27;20014;-75
2022/08/13 04:36:37;;;;;;;;;;;15.20;99.90;;;;;;5154605;27;19971;-75
2022/08/13 04:39:02;;;;;;;;;;;15.20;99.90;;;;;;5154106;27;19911;-75
2022/08/13 04:41:28;;;;;;;;;;;15.20;99.90;;;;;;5154270;27;20363;-74
2022/08/13 04:43:55;;;;;;;;;;;15.20;99.90;;;;;;5153245;27;20200;-75
2022/08/13 04:46:21;;;;;;;;;;;15.20;99.90;;;;;;5154391;27;20255;-74
2022/08/13 04:48:46;;;;;;;;;;;15.10;99.90;;;;;;5154393;27;19907;-74
2022/08/13 04:51:14;;;;;;;;;;;15.10;99.90;;;;;;5154172;27;19903;-74
2022/08/13 04:53:40;;;;;;;;;;;15.10;99.90;;;;;;5154606;27;19941;-74
2022/08/13 04:56:07;;;;;;;;;;;15.10;99.90;;;;;;5153809;27;19915;-74
2022/08/13 04:58:36;;;;;;;;;;;15.10;99.90;;;;;;5154171;27;19974;-74
2022/08/13 05:01:03;;;;;;;;;;;15.10;99.90;;;;;;5153815;27;19910;-74
2022/08/13 05:03:29;;;;;;;;;;;15.00;99.90;;;;;;5154234;27;20370;-74
2022/08/13 05:05:55;;;;;;;;;;;15.10;99.90;;;;;;5153814;27;19903;-74
2022/08/13 05:08:20;;;;;;;;;;;15.10;99.90;;;;;;5154722;27;19903;-74
2022/08/13 05:10:47;;;;;;;;;;;15.10;99.90;;;;;;5154417;27;20403;-75
2022/08/13 05:13:22;;;;;;;;;;;15.10;99.90;;;;;;5153795;27;19999;-74
2022/08/13 05:15:47;;;;;;;;;;;15.10;99.90;;;;;;5135656;27;19914;-74
2022/08/13 05:18:13;;;;;;;;;;;15.00;99.90;;;;;;5153578;27;19907;-74
2022/08/13 05:20:39;;;;;;;;;;;15.00;99.90;;;;;;5153965;27;19904;-74
2022/08/13 05:23:09;;;;;;;;;;;15.00;99.90;;;;;;5135108;27;19999;-74
2022/08/13 05:25:35;;;;;;;;;;;15.00;99.90;;;;;;5153948;27;19909;-75
2022/08/13 05:28:01;;;;;;;;;;;15.00;99.90;;;;;;5157502;27;20243;-75
2022/08/13 05:30:26;;;;;;;;;;;15.00;99.90;;;;;;5139743;27;20304;-74
2022/08/13 05:32:57;;;;;;;;;;;15.10;99.90;;;;;;5157178;27;19935;-75
2022/08/13 05:35:23;;;;;;;;;;;15.10;99.90;;;;;;5157983;27;19907;-75
2022/08/13 05:37:49;;;;;;;;;;;15.20;99.90;;;;;;5157921;27;20362;-75
2022/08/13 05:40:14;;;;;;;;;;;15.20;99.90;;;;;;5156670;27;19903;-74
2022/08/13 05:42:40;;;;;;;;;;;15.30;99.90;;;;;;5158069;27;19962;-75
2022/08/13 05:45:07;;;;;;;;;;;15.30;99.90;;;;;;5156785;27;19989;-75
2022/08/13 05:47:34;;;;;;;;;;;15.40;99.90;;;;;;5157775;27;19907;-75
2022/08/13 05:49:59;;;;;;;;;;;15.50;99.90;;;;;;5156724;27;19948;-75
2022/08/13 05:52:26;;;;;;;;;;;15.70;99.90;;;;;;5157698;27;19954;-75
2022/08/13 05:54:55;;;;;;;;;;;15.80;99.90;;;;;;5156349;27;20374;-75
2022/08/13 05:57:21;;;;;;;;;;;16.00;99.90;;;;;;5157562;27;19907;-75
2022/08/13 06:05:29;;;;;;;;;;;16.50;99.90;;;;;;5157147;27;20335;-75
2022/08/13 06:07:55;;;;;;;;;;;16.70;99.90;;;;;;5157045;27;19946;-75
2022/08/13 06:10:20;;;;;;;;;;;16.90;99.90;;;;;;5157420;27;20005;-75
2022/08/13 06:12:47;;;;;;;;;;;17.10;99.90;;;;;;5156925;27;19931;-75
2022/08/13 06:15:12;;;;;;;;;;;17.20;99.90;;;;;;5156545;27;20123;-75
2022/08/13 06:17:38;;;;;;;;;;;17.30;99.90;;;;;;5157153;27;20365;-75
2022/08/13 06:20:05;;;;;;;;;;;17.30;99.90;;;;;;5156548;27;19903;-75
2022/08/13 06:22:33;;;;;;;;;;;17.40;99.90;;;;;;5156716;27;20365;-75
2022/08/13 06:25:02;;;;;;;;;;;17.40;99.90;;;;;;5156465;27;20370;-75
2022/08/13 06:27:28;;;;;;;;;;;17.50;99.90;;;;;;5157047;27;19962;-75
2022/08/13 06:29:54;;;;;;;;;;;17.50;99.90;;;;;;5156531;27;19903;-75
2022/08/13 06:32:21;;;;;;;;;;;17.60;99.90;;;;;;5156507;27;20336;-74
2022/08/13 06:34:46;;;;;;;;;;;17.80;99.90;;;;;;5156133;27;20339;-74
2022/08/13 06:37:12;;;;;;;;;;;17.90;99.90;;;;;;5137259;27;19907;-74
2022/08/13 06:39:38;;;;;;;;;;;18.00;99.90;;;;;;5156637;27;20371;-74
2022/08/13 06:42:04;;;;;;;;;;;18.20;99.90;;;;;;5155484;27;19915;-74
2022/08/13 06:44:33;;;;;;;;;;;18.30;99.90;;;;;;5156406;27;19903;-74
2022/08/13 06:47:03;;;;;;;;;;;18.50;99.90;;;;;;5155956;27;19911;-74
2022/08/13 06:49:29;;;;;;;;;;;18.70;99.90;;;;;;5156408;27;19907;-74
2022/08/13 06:51:55;;;;;;;;;;;18.80;99.90;;;;;;5156165;27;19910;-73
2022/08/13 06:54:21;;;;;;;;;;;18.90;99.90;;;;;;5155889;27;19976;-74
2022/08/13 06:56:46;;;;;;;;;;;19.00;99.90;;;;;;5156236;27;19914;-74
2022/08/13 06:59:13;;;;;;;;;;;19.10;99.90;;;;;;5156128;27;20002;-74
2022/08/13 07:01:40;;;;;;;;;;;19.10;99.90;;;;;;5156238;27;19918;-74
2022/08/13 07:04:10;;;;;;;;;;;19.20;99.90;;;;;;5155426;27;19910;-74
2022/08/13 07:06:36;;;;;;;;;;;19.30;99.90;;;;;;5155564;27;19903;-74
2022/08/13 07:09:02;;;;;;;;;;;19.40;99.90;;;;;;5155444;27;19955;-74
2022/08/13 07:11:28;;;;;;;;;;;19.60;99.90;;;;;;5155796;27;19968;-75
2022/08/13 07:13:55;;;;;;;;;;;19.70;99.90;;;;;;5146800;27;19904;-74
2022/08/13 07:16:22;;;;;;;;;;;19.80;99.90;;;;;;5134496;27;19908;-74
2022/08/13 07:18:49;;;;;;;;;;;19.80;99.90;;;;;;5135122;27;19915;-74
2022/08/13 07:21:17;;;;;;;;;;;19.90;99.90;;;;;;5115902;27;19904;-74
2022/08/13 07:23:43;;;;;;;;;;;20.00;99.90;;;;;;5134842;27;19910;-74
2022/08/13 07:26:11;;;;;;;;;;;20.00;99.90;;;;;;5134050;27;20237;-74
2022/08/13 07:28:37;;;;;;;;;;;20.00;99.90;;;;;;5134730;27;19904;-74
2022/08/13 07:31:05;;;;;;;;;;;19.90;99.90;;;;;;5134021;27;20391;-74
2022/08/13 07:33:34;;;;;;;;;;;20.00;99.90;;;;;;5134987;27;19903;-74
2022/08/13 07:36:12;;;;;;;;;;;20.10;99.90;;;;;;5134212;27;19911;-74
2022/08/13 07:38:38;;;;;;;;;;;20.20;99.90;;;;;;5134855;27;19907;-74
2022/08/13 07:41:04;;;;;;;;;;;20.20;99.90;;;;;;5133891;27;20006;-74
2022/08/13 07:43:33;;;;;;;;;;;20.20;99.90;;;;;;5134427;27;19904;-74
2022/08/13 07:46:00;;;;;;;;;;;20.30;99.90;;;;;;5134400;27;19912;-74
2022/08/13 07:48:27;;;;;;;;;;;20.40;99.90;;;;;;5134064;27;19926;-75
2022/08/13 07:50:52;;;;;;;;;;;20.60;99.90;;;;;;5115878;27;19908;-74
2022/08/13 07:53:18;;;;;;;;;;;20.70;99.90;;;;;;5133544;27;19998;-74
2022/08/13 07:55:44;;;;;;;;;;;20.70;99.90;;;;;;5134241;27;19911;-74
2022/08/13 07:58:09;;;;;;;;;;;20.80;99.90;;;;;;5133692;27;19938;-75
2022/08/13 08:00:35;;;;;;;;;;;20.90;99.90;;;;;;5134311;27;19948;-74
2022/08/13 08:03:01;;;;;;;;;;;21.10;99.90;;;;;;5134319;27;19903;-74
2022/08/13 08:05:30;;;;;;;;;;;21.20;99.90;;;;;;5134065;27;19903;-75
2022/08/13 08:07:56;;;;;;;;;;;21.30;99.90;;;;;;5134044;27;19907;-72
2022/08/13 08:10:22;;;;;;;;;;;21.50;99.90;;;;;;5133582;27;20453;-75
2022/08/13 08:12:48;;;;;;;;;;;21.60;99.90;;;;;;5134032;27;19948;-76
2022/08/13 08:15:14;;;;;;;;;;;21.70;99.90;;;;;;5133427;27;19908;-75
2022/08/13 08:17:40;;;;;;;;;;;21.80;99.90;;;;;;5134037;27;20255;-75
2022/08/13 08:20:06;;;;;;;;;;;21.80;99.90;;;;;;5133448;27;19910;-75
2022/08/13 08:22:33;;;;;;;;;;;21.90;99.90;;;;;;5133844;27;19904;-75
2022/08/13 08:24:59;;;;;;;;;;;22.00;99.90;;;;;;5134211;27;19966;-76
2022/08/13 08:27:25;;;;;;;;;;;22.00;99.90;;;;;;5133118;27;20328;-75
2022/08/13 08:29:51;;;;;;;;;;;22.00;99.90;;;;;;5115491;28;20255;-75
2022/08/13 08:32:18;;;;;;;;;;;22.00;99.90;;;;;;5133148;27;19910;-75
2022/08/13 08:34:45;;;;;;;;;;;22.00;99.90;;;;;;5151709;27;19911;-75
2022/08/13 08:42:52;;;;;;;;;;;22.20;99.90;;;;;;5153855;27;19933;-75
2022/08/13 08:45:19;;;;;;;;;;;22.30;99.90;;;;;;5153362;27;20002;-75
2022/08/13 08:47:45;;;;;;;;;;;22.30;99.90;;;;;;5153784;27;20268;-75
2022/08/13 08:50:11;;;;;;;;;;;22.40;99.90;;;;;;5153342;27;19903;-75
2022/08/13 08:55:24;;;;;;;;;;;22.50;99.90;;;;;;5153167;27;19951;-75
2022/08/13 08:57:50;;;;;;;;;;;22.50;99.90;;;;;;5154413;27;20018;-75
2022/08/13 09:00:17;;;;;;;;;;;22.50;99.90;;;;;;5153412;27;20407;-75
2022/08/13 09:02:46;;;;;;;;;;;22.60;99.90;;;;;;5158040;27;20303;-75
2022/08/13 09:05:14;;;;;;;;;;;22.70;99.90;;;;;;5157659;27;19955;-75
2022/08/13 09:07:41;;;;;;;;;;;22.80;99.90;;;;;;5158550;27;19903;-75
2022/08/13 09:10:11;;;;;;;;;;;22.70;99.90;;;;;;5157823;27;19907;-76
2022/08/13 09:12:40;;;;;;;;;;;22.70;99.90;;;;;;5158366;27;19948;-75
2022/08/13 09:15:06;;;;;;;;;;;22.80;99.90;;;;;;5157801;27;19907;-75
2022/08/13 09:17:32;;;;;;;;;;;22.90;99.90;;;;;;5158282;27;19907;-74
2022/08/13 09:19:58;;;;;;;;;;;22.80;99.90;;;;;;5157943;27;19929;-74
2022/08/13 09:22:23;;;;;;;;;;;22.90;99.90;;;;;;5138814;27;19964;-75
2022/08/13 09:24:50;;;;;;;;;;;22.90;99.90;;;;;;5157730;27;19903;-75
2022/08/13 09:27:17;;;;;;;;;;;22.90;99.90;;;;;;5157178;27;20348;-76
2022/08/13 09:29:43;;;;;;;;;;;22.90;99.90;;;;;;5157832;27;19907;-76
2022/08/13 09:32:09;;;;;;;;;;;22.90;99.90;;;;;;5157883;27;19903;-76
2022/08/13 09:34:39;;;;;;;;;;;23.10;99.90;;;;;;5158450;27;19914;-75
2022/08/13 09:37:07;;;;;;;;;;;23.10;99.90;;;;;;5158457;27;19910;-75
2022/08/13 09:39:35;;;;;;;;;;;23.20;99.90;;;;;;5158710;27;19903;-76
2022/08/13 09:42:05;;;;;;;;;;;23.20;99.90;;;;;;5158699;27;20005;-76
2022/08/13 09:44:30;;;;;;;;;;;23.30;99.90;;;;;;5157218;27;19926;-75
2022/08/13 09:46:57;;;;;;;;;;;23.10;99.90;;;;;;5157932;27;20324;-75
2022/08/13 09:49:23;;;;;;;;;;;23.10;99.90;;;;;;5156951;27;19903;-75
2022/08/13 09:51:49;;;;;;;;;;;23.10;99.90;;;;;;5157313;27;19907;-75
2022/08/13 09:54:16;;;;;;;;;;;23.10;99.90;;;;;;5156655;27;20348;-75
2022/08/13 09:56:42;;;;;;;;;;;23.30;99.90;;;;;;5157584;27;20009;-75
2022/08/13 09:59:09;;;;;;;;;;;23.20;99.90;;;;;;5157007;27;19951;-75
2022/08/13 10:01:35;;;;;;;;;;;23.20;99.90;;;;;;5157202;27;20382;-74
2022/08/13 10:04:01;;;;;;;;;;;23.30;99.90;;;;;;5138934;27;19903;-75
2022/08/13 10:06:28;;;;;;;;;;;23.30;99.90;;;;;;5156657;27;19934;-75
2022/08/13 10:09:00;;;;;;;;;;;23.30;99.90;;;;;;5157092;27;19903;-75
2022/08/13 10:11:26;;;;;;;;;;;23.40;99.90;;;;;;5155917;27;19903;-75
2022/08/13 10:13:53;;;;;;;;;;;23.50;99.90;;;;;;5156678;27;19944;-75
2022/08/13 10:16:19;;;;;;;;;;;23.40;99.90;;;;;;5156218;27;19911;-76
2022/08/13 10:18:46;;;;;;;;;;;23.40;99.90;;;;;;5157165;27;19910;-76
2022/08/13 10:21:12;;;;;;;;;;;23.40;99.90;;;;;;5156399;27;19903;-76
2022/08/13 10:23:37;;;;;;;;;;;23.40;99.90;;;;;;5156583;27;19903;-76
2022/08/13 10:26:03;;;;;;;;;;;23.40;99.90;;;;;;5156879;27;19903;-76
2022/08/13 10:28:34;;;;;;;;;;;23.40;99.90;;;;;;5156292;27;19937;-76
2022/08/13 10:31:00;;;;;;;;;;;23.40;99.90;;;;;;5141426;27;19953;-75
2022/08/13 10:33:27;;;;;;;;;;;23.40;99.90;;;;;;5116961;27;20312;-76
2022/08/13 10:35:53;;;;;;;;;;;23.40;99.90;;;;;;5135738;27;19960;-76
2022/08/13 10:38:26;;;;;;;;;;;23.50;99.90;;;;;;5135414;27;20289;-76
2022/08/13 10:40:55;;;;;;;;;;;23.60;99.90;;;;;;5135637;27;19915;-75
2022/08/13 10:43:21;;;;;;;;;;;23.60;99.90;;;;;;5135150;27;19907;-76
2022/08/13 10:45:47;;;;;;;;;;;23.70;99.90;;;;;;5135622;27;19927;-76
2022/08/13 10:48:13;;;;;;;;;;;23.80;99.90;;;;;;5135064;27;19982;-75
2022/08/13 10:50:40;;;;;;;;;;;23.80;99.90;;;;;;5135629;27;19903;-76
2022/08/13 10:53:05;;;;;;;;;;;23.80;99.90;;;;;;5135477;27;19914;-76
2022/08/13 10:55:31;;;;;;;;;;;23.80;99.90;;;;;;5134680;27;19911;-76
2022/08/13 10:57:57;;;;;;;;;;;23.80;99.90;;;;;;5135460;27;19931;-76
2022/08/13 11:00:22;;;;;;;;;;;23.90;99.90;;;;;;5134479;27;20360;-76
2022/08/13 11:02:50;;;;;;;;;;;23.80;99.90;;;;;;5135035;27;19908;-76
2022/08/13 11:05:25;;;;;;;;;;;23.80;99.90;;;;;;5134698;27;19903;-75
2022/08/13 11:07:51;;;;;;;;;;;23.80;99.90;;;;;;5134843;27;20332;-76
2022/08/13 11:10:18;;;;;;;;;;;23.70;99.90;;;;;;5134506;27;19957;-76
2022/08/13 11:12:50;;;;;;;;;;;23.80;99.90;;;;;;5135172;27;19908;-76
2022/08/13 11:15:20;;;;;;;;;;;23.80;99.90;;;;;;5134596;27;19960;-76
2022/08/13 11:17:47;;;;;;;;;;;23.80;99.90;;;;;;5134862;27;19944;-75
2022/08/13 11:20:19;;;;;;;;;;;23.90;99.90;;;;;;5134543;27;19903;-77
2022/08/13 11:22:45;;;;;;;;;;;24.00;99.90;;;;;;5134685;27;19903;-76
2022/08/13 11:25:11;;;;;;;;;;;24.00;99.90;;;;;;5133950;27;19907;-75
2022/08/13 11:27:36;;;;;;;;;;;24.00;99.90;;;;;;5134159;27;19903;-76
2022/08/13 11:30:02;;;;;;;;;;;24.00;99.90;;;;;;5134433;27;19903;-76
2022/08/13 11:32:28;;;;;;;;;;;24.10;99.90;;;;;;5133968;27;19949;-75
2022/08/13 11:34:54;;;;;;;;;;;24.20;99.90;;;;;;5134621;27;19907;-74
2022/08/13 11:37:19;;;;;;;;;;;24.10;99.90;;;;;;5134133;27;19908;-77
2022/08/13 11:39:45;;;;;;;;;;;24.10;99.90;;;;;;5134390;27;19910;-77
2022/08/13 11:42:10;;;;;;;;;;;24.00;99.90;;;;;;5134882;27;20267;-76
2022/08/13 11:44:36;;;;;;;;;;;24.10;99.90;;;;;;5133851;27;19951;-77
2022/08/13 11:47:02;;;;;;;;;;;24.10;99.90;;;;;;5134991;27;19903;-76
2022/08/13 11:49:27;;;;;;;;;;;24.10;99.90;;;;;;5133928;27;19903;-77
2022/08/13 11:51:53;;;;;;;;;;;24.00;99.90;;;;;;5134620;27;19903;-76
2022/08/13 11:54:20;;;;;;;;;;;24.00;99.90;;;;;;5133975;27;19955;-77
2022/08/13 11:56:45;;;;;;;;;;;24.10;99.90;;;;;;5134388;27;19907;-76
2022/08/13 11:59:11;;;;;;;;;;;24.20;99.90;;;;;;5134438;27;20422;-77
2022/08/13 12:01:36;;;;;;;;;;;24.20;99.90;;;;;;5115421;27;19918;-77
2022/08/13 12:04:02;;;;;;;;;;;24.20;99.90;;;;;;5134401;27;19903;-76
2022/08/13 12:06:28;;;;;;;;;;;24.20;99.90;;;;;;5133804;27;20291;-75
2022/08/13 12:08:53;;;;;;;;;;;24.20;99.90;;;;;;5133473;27;20554;-76
2022/08/13 12:11:19;;;;;;;;;;;24.30;99.90;;;;;;5115557;27;19903;-76
2022/08/13 12:13:45;;;;;;;;;;;24.30;99.90;;;;;;5134268;27;19998;-75
2022/08/13 12:16:10;;;;;;;;;;;24.20;99.90;;;;;;5133216;27;20355;-76
2022/08/13 12:18:36;;;;;;;;;;;24.20;99.90;;;;;;5133114;27;19998;-76
2022/08/13 12:21:01;;;;;;;;;;;24.30;99.90;;;;;;5114460;27;19903;-75
2022/08/13 12:23:27;;;;;;;;;;;24.30;99.90;;;;;;5132653;27;19904;-76
2022/08/13 12:25:53;;;;;;;;;;;24.30;99.90;;;;;;5133533;27;20383;-75
2022/08/13 12:28:23;;;;;;;;;;;24.40;99.90;;;;;;5133419;27;19907;-75
2022/08/13 12:30:50;;;;;;;;;;;24.50;99.90;;;;;;5134152;27;20233;-75
2022/08/13 12:33:16;;;;;;;;;;;24.50;99.90;;;;;;5133740;27;19903;-75
2022/08/13 12:35:42;;;;;;;;;;;24.50;99.90;;;;;;5133270;27;20003;-75
2022/08/13 12:38:08;;;;;;;;;;;24.50;99.90;;;;;;5133646;28;20258;-75
2022/08/13 12:40:34;;;;;;;;;;;24.50;99.90;;;;;;5133071;28;19916;-76
2022/08/13 12:43:00;;;;;;;;;;;24.60;99.90;;;;;;5133731;27;19947;-75
2022/08/13 12:45:25;;;;;;;;;;;24.60;99.90;;;;;;5133333;28;20032;-75
2022/08/13 12:47:51;;;;;;;;;;;24.60;99.90;;;;;;5134201;28;19903;-76
2022/08/13 12:50:17;;;;;;;;;;;24.70;99.90;;;;;;5133273;28;19904;-75
2022/08/13 12:52:42;;;;;;;;;;;24.70;99.90;;;;;;5133276;28;20018;-76
2022/08/13 12:55:08;;;;;;;;;;;24.70;99.90;;;;;;5133242;28;20385;-75
2022/08/13 12:57:34;;;;;;;;;;;24.70;99.90;;;;;;5133216;28;19914;-75
2022/08/13 12:59:59;;;;;;;;;;;24.80;99.90;;;;;;5133629;28;19908;-76
2022/08/13 13:02:25;;;;;;;;;;;24.80;99.90;;;;;;5132579;28;19911;-76
2022/08/13 13:04:50;;;;;;;;;;;24.90;99.90;;;;;;5133244;28;19911;-76
2022/08/13 13:07:16;;;;;;;;;;;25.00;99.90;;;;;;5133433;28;19909;-76
2022/08/13 13:09:42;;;;;;;;;;;24.90;99.90;;;;;;5133279;28;19904;-75
2022/08/13 13:12:07;;;;;;;;;;;24.90;99.90;;;;;;5133227;28;20311;-75
2022/08/13 13:14:33;;;;;;;;;;;25.00;99.90;;;;;;5132332;28;20256;-75
2022/08/13 13:16:59;;;;;;;;;;;25.00;99.90;;;;;;5132940;28;19918;-76
2022/08/13 13:19:24;;;;;;;;;;;25.00;99.90;;;;;;5132369;28;19942;-76
2022/08/13 13:21:50;;;;;;;;;;;24.90;99.90;;;;;;5132579;28;19907;-76
2022/08/13 13:24:16;;;;;;;;;;;25.00;99.90;;;;;;5132977;28;19903;-76
2022/08/13 13:26:41;;;;;;;;;;;25.10;99.90;;;;;;5132424;28;19904;-77
2022/08/13 13:29:08;;;;;;;;;;;25.10;99.90;;;;;;5133389;28;20035;-76
2022/08/13 13:31:33;;;;;;;;;;;25.00;99.90;;;;;;5132753;28;19904;-76
2022/08/13 13:33:59;;;;;;;;;;;25.10;99.90;;;;;;5132662;28;19908;-76
2022/08/13 13:36:25;;;;;;;;;;;25.20;99.90;;;;;;5132754;28;19912;-76
2022/08/13 13:38:50;;;;;;;;;;;25.10;99.90;;;;;;5133534;28;19987;-77
2022/08/13 13:41:16;;;;;;;;;;;25.10;99.90;;;;;;5133303;28;19994;-76
2022/08/13 13:43:41;;;;;;;;;;;25.00;99.90;;;;;;5114051;28;19907;-75
2022/08/13 13:46:07;;;;;;;;;;;25.00;99.90;;;;;;5133080;27;19907;-76
2022/08/13 13:48:36;;;;;;;;;;;24.90;99.90;;;;;;5116832;27;19904;-76
2022/08/13 13:51:04;;;;;;;;;;;24.90;99.90;;;;;;5136490;27;19913;-76
2022/08/13 13:53:32;;;;;;;;;;;24.90;99.90;;;;;;5136138;27;19904;-76
2022/08/13 13:55:59;;;;;;;;;;;24.90;99.90;;;;;;5136739;27;19994;-75
2022/08/13 13:58:25;;;;;;;;;;;24.90;99.90;;;;;;5135928;27;19908;-75
2022/08/13 14:00:51;;;;;;;;;;;25.00;99.90;;;;;;5136800;27;19957;-75
2022/08/13 14:03:17;;;;;;;;;;;25.10;99.90;;;;;;5136477;27;19946;-75
2022/08/13 14:05:43;;;;;;;;;;;25.10;99.90;;;;;;5136087;27;19935;-75
2022/08/13 14:08:10;;;;;;;;;;;25.00;99.90;;;;;;5136680;27;20339;-75
2022/08/13 14:10:36;;;;;;;;;;;24.90;99.90;;;;;;5137899;27;19940;-74
2022/08/13 14:13:02;;;;;;;;;;;25.00;99.90;;;;;;5140922;27;19908;-75
2022/08/13 14:15:33;;;;;;;;;;;25.10;99.90;;;;;;5135608;27;20017;-75
2022/08/13 14:18:00;;;;;;;;;;;25.20;99.90;;;;;;5136285;27;19993;-76
2022/08/13 14:20:28;;;;;;;;;;;25.10;99.90;;;;;;5135308;27;19989;-75
2022/08/13 14:22:54;;;;;;;;;;;25.10;99.90;;;;;;5136019;27;19904;-77
2022/08/13 14:25:20;;;;;;;;;;;25.10;99.90;;;;;;5136295;27;19910;-77
2022/08/13 14:27:46;;;;;;;;;;;25.20;99.90;;;;;;5135712;27;19911;-76
2022/08/13 14:30:12;;;;;;;;;;;25.20;99.90;;;;;;5136086;27;19955;-75
2022/08/13 14:32:38;;;;;;;;;;;25.20;99.90;;;;;;5135391;27;19904;-75
2022/08/13 14:35:05;;;;;;;;;;;25.10;99.90;;;;;;5135765;27;19914;-75
2022/08/13 14:37:36;;;;;;;;;;;25.00;99.90;;;;;;5135448;27;19908;-75
2022/08/13 14:40:03;;;;;;;;;;;25.10;99.90;;;;;;5135705;27;19911;-75